METAR Data
IDs: Format: Raw Decoded Include TAF

Data at: 1617 UTC 21 Sep 2018

KAIA 211553Z AUTO 02005KT 10SM CLR 13/05 A3033 RMK AO2 SLP264 T01280050
KAIA 211453Z AUTO 34007KT 10SM CLR 11/06 A3032 RMK AO2 SLP256 T01060056 51020
KAIA 211353Z AUTO 36004KT 10SM CLR 07/05 A3031 RMK AO2 SLP255 T00720050
KAIA 211253Z AUTO 10SM CLR 03/03 A3029 RMK AO2 SLP255 T00280028 $
KAIA 211153Z AUTO 10SM CLR 03/03 A3025 RMK AO2 SLP235 70003 T00280028 10061 20028 51012 $
KAIA 211053Z AUTO 10SM CLR 04/04 A3024 RMK AO2 SLP228 T00440039 $
KAIA 210953Z AUTO 10SM CLR 04/04 A3023 RMK AO2 SLP223 T00390039 $
KAIA 210853Z AUTO 10SM CLR 06/05 A3021 RMK AO2 SLP214 T00610050 51024 $
KAIA 210753Z AUTO 10SM CLR 06/04 A3019 RMK AO2 SLP206 T00560044 $
KAIA 210653Z AUTO 10SM CLR 06/05 A3016 RMK AO2 SLP198 T00610050 402110039 $
KAIA 210553Z AUTO 10SM CLR 06/06 A3013 RMK AO2 SLP190 T00560056 10178 20039 51026 $
KAIA 210453Z AUTO 10SM CLR 04/04 A3011 RMK AO2 SLP188 T00440044 $
KAIA 210353Z AUTO 10SM CLR 07/07 A3008 RMK AO2 SLP175 T00720067 $
KAIA 210253Z AUTO 10SM CLR 12/08 A3005 RMK AO2 SLP159 T01170083 51044 $
KAIA 210153Z AUTO 10SM CLR 13/08 A3000 RMK AO2 SLP142 T01330083 $
KAIA 210053Z AUTO 10SM CLR 15/11 A2995 RMK AO2 SLP122 T01500106 $
KAIA 202353Z AUTO 36011KT 10SM CLR 18/12 A2990 RMK AO2 WSHFT 2317 RAE21 SLP100 P0002 60002 T01780122 10211 20161 51021
KAIA 202337Z AUTO 36013KT 10SM FEW090 FEW110 18/13 A2989 RMK AO2 WSHFT 2317 LTG DSNT SE AND S RAE21 P0002 T01780128
KAIA 202253Z AUTO 34014KT 10SM -RA FEW080 SCT095 SCT120 18/12 A2990 RMK AO2 LTG DSNT SW AND W RAB52 PRESRR SLP098 P0000 T01780117
KAIA 202153Z AUTO 36008KT 330V030 10SM CLR 21/14 A2985 RMK AO2 SLP078 T02060139
KAIA 202053Z AUTO 34011KT 10SM SCT025 19/14 A2983 RMK AO2 SLP073 T01940139 50000
KAIA 202050Z AUTO 32011KT 10SM SCT025 19/14 A2983 RMK AO2
KAIA 202030Z AUTO 34012KT 10SM BKN024 18/14 A2984 RMK AO2 T01830144
KAIA 202017Z AUTO 35008KT 10SM FEW022 SCT027 19/14 A2984 RMK AO2 T01890144
KAIA 201953Z AUTO 30011KT 10SM BKN022 BKN027 19/14 A2984 RMK AO2 SLP074 T01940139
KAIA 201853Z AUTO 31011KT 10SM OVC017 18/14 A2983 RMK AO2 SLP075 T01780144
KAIA 201753Z AUTO 31007KT 10SM BKN015 18/15 A2983 RMK AO2 SLP075 60001 T01780150 10178 20117 58003
KAIA 201749Z AUTO 31009KT 10SM OVC015 17/15 A2984 RMK AO2
KAIA 201733Z AUTO 31008KT 10SM BKN010 OVC014 16/14 A2984 RMK AO2 CIG 008V013 T01610144
KAIA 201653Z AUTO 28006KT 10SM OVC006 16/14 A2985 RMK AO2 SLP083 T01560144
KAIA 201605Z AUTO 28006KT 10SM OVC005 14/14 A2985 RMK AO2 T01390139
KAIA 201553Z AUTO 26005KT 10SM OVC004 14/14 A2984 RMK AO2 SLP084 T01390139
KAIA 201453Z AUTO 07003KT 6SM BR BKN003 12/12 A2982 RMK AO2 RAE17 SLP078 P0000 60001 T01220122 55012
KAIA 201449Z AUTO 07003KT 2 1/2SM BR BKN003 12/12 A2982 RMK AO2 RAE17 P0000
KAIA 201417Z AUTO 34007KT 10SM BKN004 OVC080 12/12 A2985 RMK AO2 RAE17 P0000 T01220122
KAIA 201353Z AUTO 05004KT 10SM -RA FEW007 BKN080 OVC095 12/12 A2986 RMK AO2 RAB00E34B44 SLP092 P0001 T01170117
KAIA 201342Z AUTO 32005KT 2 1/2SM BR SCT004 BKN021 OVC090 12/12 A2987 RMK AO2 VIS 3/4V5 RAB00E34 P0000 T01170117
KAIA 201329Z AUTO 00000KT 10SM -RA BKN004 BKN019 OVC080 12/12 A2986 RMK AO2 RAB00 P0000 T01170117
KAIA 201321Z AUTO 34003KT 2SM -RA BR BKN004 BKN013 OVC022 12/12 A2986 RMK AO2 RAB00 P0000 T01170117
KAIA 201318Z AUTO 32003KT 1 1/4SM -RA BR BKN004 OVC013 12/12 A2987 RMK AO2 RAB00 P0000 T01170117
KAIA 201308Z AUTO 00000KT 3/4SM -RA BR BKN003 OVC013 12/12 A2988 RMK AO2 RAB00 P0000 T01170117
KAIA 201300Z AUTO 35004KT 1SM -RA BR BKN004 OVC013 12/12 A2987 RMK AO2 RAB00 P0000 T01170117
KAIA 201257Z AUTO 35005KT 1 1/2SM BR BKN004 OVC013 12/12 A2987 RMK AO2 T01170117
KAIA 201253Z AUTO 01005KT 4SM BR BKN004 OVC013 12/12 A2987 RMK AO2 RAE12 SLP094 P0000 T01170117
KAIA 201238Z AUTO 02006KT 9SM BKN004 BKN008 OVC013 12/12 A2986 RMK AO2 RAE12 P0000 T01220122
KAIA 201203Z AUTO 35003KT 5SM -RA BR OVC005 12/12 A2988 RMK AO2 P0000 T01170117
KAIA 201153Z AUTO 34005KT 2 1/2SM -RA BR OVC005 12/12 A2988 RMK AO2 RAB26 SLP097 P0001 60001 70002 T01170117 10128 20117 50015
KAIA 201151Z AUTO 33005KT 2SM -RA BR OVC005 12/12 A2988 RMK AO2 RAB26 P0001
KAIA 201116Z AUTO 05007KT 8SM BKN006 OVC009 12/12 A2986 RMK AO2 T01220122
KAIA 201108Z AUTO 01008KT 5SM BR BKN004 OVC008 12/12 A2985 RMK AO2 T01220122
KAIA 201053Z AUTO 02007KT 10SM OVC006 12/12 A2985 RMK AO2 RAB12E25 SLP086 P0000 T01220122
KAIA 201025Z AUTO 36011KT 3SM BR BKN004 OVC010 12/12 A2983 RMK AO2 RAB12E25 P0000 T01220122
KAIA 201023Z AUTO 35012KT 2 1/2SM -RA BR BKN005 OVC010 12/12 A2983 RMK AO2 RAB12 P0000 T01220122
KAIA 201014Z AUTO 36010KT 1 3/4SM -RA BR BKN005 OVC010 12/12 A2982 RMK AO2 RAB12 P0000 T01220122
KAIA 200953Z AUTO 36009KT 1 1/4SM BR OVC005 12/12 A2983 RMK AO2 SLP080 T01220122
KAIA 200951Z AUTO 36009KT 1 1/4SM BR OVC005 12/12 A2983 RMK AO2
KAIA 200848Z AUTO 01005KT 1 3/4SM BR OVC005 13/13 A2988 RMK AO2 SLP096 T01280128 55006
KAIA 200847Z AUTO 02006KT 1 3/4SM BR OVC005 13/13 A2988 RMK AO2
KAIA 200813Z AUTO 02007KT 10SM OVC005 13/13 A2987 RMK AO2 PRESRR T01280128
KAIA 200753Z AUTO 05012KT 5SM BR OVC003 13/13 A2983 RMK AO2 SLP077 T01280128
KAIA 200708Z AUTO 04012KT 8SM OVC004 13/13 A2987 RMK AO2 PRESFR T01280128
KAIA 200653Z AUTO 03012KT 9SM OVC005 13/13 A2989 RMK AO2 SLP098 T01280128 401830122
KAIA 200553Z AUTO 01010KT 10SM BKN006 OVC010 13/13 A2990 RMK AO2 SLP101 60000 T01280128 10150 20122 56009
KAIA 200549Z AUTO 02009KT 10SM OVC006 13/13 A2991 RMK AO2
KAIA 200530Z AUTO 02009KT 10SM OVC004 13/13 A2992 RMK AO2 T01280128
KAIA 200517Z AUTO 01010KT 10SM OVC005 13/13 A2992 RMK AO2 LTG DSNT NE T01280128
KAIA 200453Z AUTO 02012KT 4SM BR OVC004 13/13 A2992 RMK AO2 LTG DSNT NE-SE SLP109 T01280128
KAIA 200430Z AUTO 02010KT 6SM BR OVC004 13/13 A2994 RMK AO2 LTG DSNT NE-SE T01280128